LLA weather

Luleå Airport
Luleå, Norrbottena län, Sweden

Public forecast

Using degrees Celsius for public forecast. Weather courtesy of forecast.io.

METAR (pilot weather report)

Retrieved 2018/10/20 07:20 UTC (40 minutes ago):

ESPA 200720Z 00000KT CAVOK 01/M00 Q1016

TAF (pilot weather forecast)

Forecast is more than 12 hours old.

Retrieved 2015/10/14 12:33 UTC (3 years ago):

TAF ESPA 141130Z 1412/1521 23003KT CAVOK